sensor_id;sensor_type;location;lat;lon;timestamp;P1;durP1;ratioP1;P2;durP2;ratioP2
57047;SDS011;42934;54.294;18.598;2024-02-04T00:01:07;10.03;;;1.90;;
57047;SDS011;42934;54.294;18.598;2024-02-04T00:03:58;16.13;;;2.53;;
57047;SDS011;42934;54.294;18.598;2024-02-04T00:06:27;15.02;;;2.05;;
57047;SDS011;42934;54.294;18.598;2024-02-04T00:08:56;12.75;;;1.92;;
57047;SDS011;42934;54.294;18.598;2024-02-04T00:11:26;15.20;;;2.00;;
57047;SDS011;42934;54.294;18.598;2024-02-04T00:13:55;18.57;;;2.53;;
57047;SDS011;42934;54.294;18.598;2024-02-04T00:16:24;15.23;;;2.25;;
57047;SDS011;42934;54.294;18.598;2024-02-04T00:18:53;14.70;;;2.53;;
57047;SDS011;42934;54.294;18.598;2024-02-04T00:21:24;10.98;;;1.95;;
57047;SDS011;42934;54.294;18.598;2024-02-04T00:23:53;9.30;;;1.70;;
57047;SDS011;42934;54.294;18.598;2024-02-04T00:26:22;9.98;;;1.75;;
57047;SDS011;42934;54.294;18.598;2024-02-04T00:28:52;10.75;;;2.50;;
57047;SDS011;42934;54.294;18.598;2024-02-04T00:31:20;9.40;;;1.73;;
57047;SDS011;42934;54.294;18.598;2024-02-04T00:33:49;9.53;;;2.30;;
57047;SDS011;42934;54.294;18.598;2024-02-04T00:36:18;11.50;;;2.00;;
57047;SDS011;42934;54.294;18.598;2024-02-04T00:38:50;10.23;;;1.70;;
57047;SDS011;42934;54.294;18.598;2024-02-04T00:41:19;19.00;;;2.13;;
57047;SDS011;42934;54.294;18.598;2024-02-04T00:43:49;11.50;;;1.85;;
57047;SDS011;42934;54.294;18.598;2024-02-04T00:46:18;12.73;;;1.80;;
57047;SDS011;42934;54.294;18.598;2024-02-04T00:48:47;9.75;;;1.90;;
57047;SDS011;42934;54.294;18.598;2024-02-04T00:51:16;11.10;;;2.05;;
57047;SDS011;42934;54.294;18.598;2024-02-04T00:53:47;16.45;;;2.22;;
57047;SDS011;42934;54.294;18.598;2024-02-04T00:56:17;11.43;;;1.92;;
57047;SDS011;42934;54.294;18.598;2024-02-04T00:58:47;14.63;;;2.28;;
57047;SDS011;42934;54.294;18.598;2024-02-04T01:01:16;12.48;;;1.90;;
57047;SDS011;42934;54.294;18.598;2024-02-04T01:03:46;11.05;;;1.80;;
57047;SDS011;42934;54.294;18.598;2024-02-04T01:06:16;11.55;;;2.05;;
57047;SDS011;42934;54.294;18.598;2024-02-04T01:08:46;12.37;;;2.37;;
57047;SDS011;42934;54.294;18.598;2024-02-04T01:11:16;12.55;;;2.08;;
57047;SDS011;42934;54.294;18.598;2024-02-04T01:13:45;11.70;;;1.70;;
57047;SDS011;42934;54.294;18.598;2024-02-04T01:16:14;10.95;;;2.00;;
57047;SDS011;42934;54.294;18.598;2024-02-04T01:18:44;15.73;;;2.45;;
57047;SDS011;42934;54.294;18.598;2024-02-04T01:21:13;13.93;;;2.33;;
57047;SDS011;42934;54.294;18.598;2024-02-04T01:23:42;13.37;;;1.90;;
57047;SDS011;42934;54.294;18.598;2024-02-04T01:26:11;10.20;;;1.95;;
57047;SDS011;42934;54.294;18.598;2024-02-04T01:28:43;14.70;;;2.13;;
57047;SDS011;42934;54.294;18.598;2024-02-04T01:31:12;16.08;;;1.90;;
57047;SDS011;42934;54.294;18.598;2024-02-04T01:33:42;12.35;;;1.70;;
57047;SDS011;42934;54.294;18.598;2024-02-04T01:36:11;15.70;;;2.23;;
57047;SDS011;42934;54.294;18.598;2024-02-04T01:38:40;15.55;;;2.13;;
57047;SDS011;42934;54.294;18.598;2024-02-04T01:41:09;10.23;;;1.50;;
57047;SDS011;42934;54.294;18.598;2024-02-04T01:43:39;12.63;;;1.63;;
57047;SDS011;42934;54.294;18.598;2024-02-04T01:46:09;12.73;;;1.88;;
57047;SDS011;42934;54.294;18.598;2024-02-04T01:48:39;13.10;;;1.75;;
57047;SDS011;42934;54.294;18.598;2024-02-04T01:51:08;11.68;;;2.10;;
57047;SDS011;42934;54.294;18.598;2024-02-04T01:53:39;14.70;;;2.45;;
57047;SDS011;42934;54.294;18.598;2024-02-04T01:56:11;10.18;;;1.85;;
57047;SDS011;42934;54.294;18.598;2024-02-04T01:58:42;10.23;;;1.77;;
57047;SDS011;42934;54.294;18.598;2024-02-04T02:01:13;11.15;;;2.35;;
57047;SDS011;42934;54.294;18.598;2024-02-04T02:03:44;13.88;;;1.65;;
57047;SDS011;42934;54.294;18.598;2024-02-04T02:06:13;15.20;;;2.67;;
57047;SDS011;42934;54.294;18.598;2024-02-04T02:08:44;11.77;;;1.98;;
57047;SDS011;42934;54.294;18.598;2024-02-04T02:11:16;14.77;;;3.00;;
57047;SDS011;42934;54.294;18.598;2024-02-04T02:13:50;12.65;;;2.13;;
57047;SDS011;42934;54.294;18.598;2024-02-04T02:16:27;14.35;;;2.58;;
57047;SDS011;42934;54.294;18.598;2024-02-04T02:19:00;16.00;;;2.42;;
57047;SDS011;42934;54.294;18.598;2024-02-04T02:21:44;16.50;;;2.05;;
57047;SDS011;42934;54.294;18.598;2024-02-04T02:24:27;13.90;;;2.03;;
57047;SDS011;42934;54.294;18.598;2024-02-04T02:26:59;14.30;;;1.73;;
57047;SDS011;42934;54.294;18.598;2024-02-04T02:29:29;17.33;;;2.67;;
57047;SDS011;42934;54.294;18.598;2024-02-04T02:31:59;10.13;;;2.15;;
57047;SDS011;42934;54.294;18.598;2024-02-04T02:34:30;9.75;;;1.55;;
57047;SDS011;42934;54.294;18.598;2024-02-04T02:37:08;14.88;;;2.40;;
57047;SDS011;42934;54.294;18.598;2024-02-04T02:39:48;13.70;;;2.30;;
57047;SDS011;42934;54.294;18.598;2024-02-04T02:42:25;11.55;;;1.90;;
57047;SDS011;42934;54.294;18.598;2024-02-04T02:44:56;11.15;;;1.60;;
57047;SDS011;42934;54.294;18.598;2024-02-04T02:47:25;11.37;;;1.73;;
57047;SDS011;42934;54.294;18.598;2024-02-04T02:49:57;12.43;;;2.60;;
57047;SDS011;42934;54.294;18.598;2024-02-04T02:52:28;15.38;;;1.88;;
57047;SDS011;42934;54.294;18.598;2024-02-04T02:54:59;11.00;;;1.67;;
57047;SDS011;42934;54.294;18.598;2024-02-04T02:57:28;12.63;;;2.13;;
57047;SDS011;42934;54.294;18.598;2024-02-04T02:59:57;9.93;;;2.23;;
57047;SDS011;42934;54.294;18.598;2024-02-04T03:02:26;16.73;;;2.35;;
57047;SDS011;42934;54.294;18.598;2024-02-04T03:04:56;11.20;;;2.13;;
57047;SDS011;42934;54.294;18.598;2024-02-04T03:07:25;14.45;;;2.08;;
57047;SDS011;42934;54.294;18.598;2024-02-04T03:09:54;13.97;;;1.90;;
57047;SDS011;42934;54.294;18.598;2024-02-04T03:12:24;17.35;;;2.13;;
57047;SDS011;42934;54.294;18.598;2024-02-04T03:14:54;10.40;;;2.10;;
57047;SDS011;42934;54.294;18.598;2024-02-04T03:17:23;15.65;;;2.35;;
57047;SDS011;42934;54.294;18.598;2024-02-04T03:19:52;15.77;;;2.05;;
57047;SDS011;42934;54.294;18.598;2024-02-04T03:22:22;12.40;;;1.55;;
57047;SDS011;42934;54.294;18.598;2024-02-04T03:24:53;10.68;;;2.40;;
57047;SDS011;42934;54.294;18.598;2024-02-04T03:27:22;11.18;;;1.90;;
57047;SDS011;42934;54.294;18.598;2024-02-04T03:29:52;14.93;;;2.13;;
57047;SDS011;42934;54.294;18.598;2024-02-04T03:32:22;15.02;;;2.28;;
57047;SDS011;42934;54.294;18.598;2024-02-04T03:34:52;10.48;;;1.75;;
57047;SDS011;42934;54.294;18.598;2024-02-04T03:37:21;17.05;;;2.20;;
57047;SDS011;42934;54.294;18.598;2024-02-04T03:39:50;15.87;;;2.20;;
57047;SDS011;42934;54.294;18.598;2024-02-04T03:42:19;9.90;;;1.70;;
57047;SDS011;42934;54.294;18.598;2024-02-04T03:44:49;13.98;;;1.65;;
57047;SDS011;42934;54.294;18.598;2024-02-04T03:47:20;15.57;;;2.40;;
57047;SDS011;42934;54.294;18.598;2024-02-04T03:49:49;13.15;;;2.33;;
57047;SDS011;42934;54.294;18.598;2024-02-04T03:52:18;12.95;;;2.22;;
57047;SDS011;42934;54.294;18.598;2024-02-04T03:54:48;10.00;;;1.73;;
57047;SDS011;42934;54.294;18.598;2024-02-04T03:57:17;12.30;;;2.05;;
57047;SDS011;42934;54.294;18.598;2024-02-04T03:59:46;13.15;;;1.80;;
57047;SDS011;42934;54.294;18.598;2024-02-04T04:02:15;13.85;;;2.50;;
57047;SDS011;42934;54.294;18.598;2024-02-04T04:04:46;15.77;;;3.00;;
57047;SDS011;42934;54.294;18.598;2024-02-04T04:07:15;11.02;;;2.17;;
57047;SDS011;42934;54.294;18.598;2024-02-04T04:09:45;15.85;;;2.35;;
57047;SDS011;42934;54.294;18.598;2024-02-04T04:12:14;12.10;;;2.33;;
57047;SDS011;42934;54.294;18.598;2024-02-04T04:14:43;12.80;;;1.67;;
57047;SDS011;42934;54.294;18.598;2024-02-04T04:17:12;13.35;;;2.40;;
57047;SDS011;42934;54.294;18.598;2024-02-04T04:19:42;13.05;;;1.95;;
57047;SDS011;42934;54.294;18.598;2024-02-04T04:22:13;14.95;;;1.80;;
57047;SDS011;42934;54.294;18.598;2024-02-04T04:24:42;16.00;;;2.08;;
57047;SDS011;42934;54.294;18.598;2024-02-04T04:27:11;11.45;;;1.77;;
57047;SDS011;42934;54.294;18.598;2024-02-04T04:29:40;14.17;;;2.10;;
57047;SDS011;42934;54.294;18.598;2024-02-04T04:32:09;8.02;;;1.40;;
57047;SDS011;42934;54.294;18.598;2024-02-04T04:34:39;16.90;;;2.37;;
57047;SDS011;42934;54.294;18.598;2024-02-04T04:37:08;14.07;;;2.30;;
57047;SDS011;42934;54.294;18.598;2024-02-04T04:39:39;11.17;;;1.73;;
57047;SDS011;42934;54.294;18.598;2024-02-04T04:42:08;12.75;;;1.90;;
57047;SDS011;42934;54.294;18.598;2024-02-04T04:44:37;11.68;;;1.73;;
57047;SDS011;42934;54.294;18.598;2024-02-04T04:47:07;10.63;;;1.77;;
57047;SDS011;42934;54.294;18.598;2024-02-04T04:49:36;7.43;;;1.47;;
57047;SDS011;42934;54.294;18.598;2024-02-04T04:52:05;9.73;;;1.85;;
57047;SDS011;42934;54.294;18.598;2024-02-04T04:54:35;12.40;;;1.73;;
57047;SDS011;42934;54.294;18.598;2024-02-04T04:57:05;12.60;;;1.48;;
57047;SDS011;42934;54.294;18.598;2024-02-04T04:59:35;12.13;;;1.67;;
57047;SDS011;42934;54.294;18.598;2024-02-04T05:02:04;6.80;;;1.40;;
57047;SDS011;42934;54.294;18.598;2024-02-04T05:04:34;14.07;;;1.83;;
57047;SDS011;42934;54.294;18.598;2024-02-04T05:07:03;9.75;;;1.83;;
57047;SDS011;42934;54.294;18.598;2024-02-04T05:09:33;17.58;;;2.08;;
57047;SDS011;42934;54.294;18.598;2024-02-04T05:12:02;11.73;;;1.85;;
57047;SDS011;42934;54.294;18.598;2024-02-04T05:14:33;11.73;;;2.00;;
57047;SDS011;42934;54.294;18.598;2024-02-04T05:19:31;9.80;;;1.70;;
57047;SDS011;42934;54.294;18.598;2024-02-04T05:22:00;11.97;;;1.97;;
57047;SDS011;42934;54.294;18.598;2024-02-04T05:24:30;14.40;;;1.70;;
57047;SDS011;42934;54.294;18.598;2024-02-04T05:26:59;9.55;;;1.65;;
57047;SDS011;42934;54.294;18.598;2024-02-04T05:29:28;13.20;;;2.13;;
57047;SDS011;42934;54.294;18.598;2024-02-04T05:31:59;12.30;;;1.43;;
57047;SDS011;42934;54.294;18.598;2024-02-04T05:34:29;14.20;;;2.20;;
57047;SDS011;42934;54.294;18.598;2024-02-04T05:37:01;14.85;;;2.17;;
57047;SDS011;42934;54.294;18.598;2024-02-04T05:39:31;15.15;;;2.25;;
57047;SDS011;42934;54.294;18.598;2024-02-04T05:42:00;18.65;;;2.17;;
57047;SDS011;42934;54.294;18.598;2024-02-04T05:44:29;11.52;;;1.70;;
57047;SDS011;42934;54.294;18.598;2024-02-04T05:47:00;13.93;;;2.28;;
57047;SDS011;42934;54.294;18.598;2024-02-04T05:49:29;16.55;;;2.00;;
57047;SDS011;42934;54.294;18.598;2024-02-04T05:51:58;14.43;;;2.03;;
57047;SDS011;42934;54.294;18.598;2024-02-04T05:54:28;10.82;;;1.60;;
57047;SDS011;42934;54.294;18.598;2024-02-04T05:56:57;12.52;;;1.98;;
57047;SDS011;42934;54.294;18.598;2024-02-04T05:59:27;16.58;;;1.85;;
57047;SDS011;42934;54.294;18.598;2024-02-04T06:01:56;12.45;;;1.85;;
57047;SDS011;42934;54.294;18.598;2024-02-04T06:04:26;13.93;;;1.83;;
57047;SDS011;42934;54.294;18.598;2024-02-04T06:06:56;13.90;;;2.45;;
57047;SDS011;42934;54.294;18.598;2024-02-04T06:09:25;15.30;;;2.40;;
57047;SDS011;42934;54.294;18.598;2024-02-04T06:11:54;16.25;;;2.30;;
57047;SDS011;42934;54.294;18.598;2024-02-04T06:14:23;11.65;;;2.40;;
57047;SDS011;42934;54.294;18.598;2024-02-04T06:16:53;12.27;;;1.58;;
57047;SDS011;42934;54.294;18.598;2024-02-04T06:19:22;12.93;;;1.70;;
57047;SDS011;42934;54.294;18.598;2024-02-04T06:21:52;12.05;;;2.20;;
57047;SDS011;42934;54.294;18.598;2024-02-04T06:24:22;11.50;;;1.88;;
57047;SDS011;42934;54.294;18.598;2024-02-04T06:26:51;11.48;;;1.55;;
57047;SDS011;42934;54.294;18.598;2024-02-04T06:29:20;15.52;;;2.05;;
57047;SDS011;42934;54.294;18.598;2024-02-04T06:31:49;16.33;;;2.67;;
57047;SDS011;42934;54.294;18.598;2024-02-04T06:34:19;11.20;;;2.03;;
57047;SDS011;42934;54.294;18.598;2024-02-04T06:36:48;14.52;;;2.40;;
57047;SDS011;42934;54.294;18.598;2024-02-04T06:39:19;11.60;;;2.10;;
57047;SDS011;42934;54.294;18.598;2024-02-04T06:41:48;11.98;;;2.03;;
57047;SDS011;42934;54.294;18.598;2024-02-04T06:44:17;11.05;;;2.42;;
57047;SDS011;42934;54.294;18.598;2024-02-04T06:46:46;20.60;;;2.63;;
57047;SDS011;42934;54.294;18.598;2024-02-04T06:49:16;12.80;;;1.95;;
57047;SDS011;42934;54.294;18.598;2024-02-04T06:51:46;12.70;;;1.67;;
57047;SDS011;42934;54.294;18.598;2024-02-04T06:54:15;17.50;;;1.75;;
57047;SDS011;42934;54.294;18.598;2024-02-04T06:56:45;13.70;;;2.05;;
57047;SDS011;42934;54.294;18.598;2024-02-04T06:59:15;9.13;;;1.83;;
57047;SDS011;42934;54.294;18.598;2024-02-04T07:01:44;15.85;;;2.53;;
57047;SDS011;42934;54.294;18.598;2024-02-04T07:04:14;11.95;;;2.03;;
57047;SDS011;42934;54.294;18.598;2024-02-04T07:06:43;11.43;;;1.70;;
57047;SDS011;42934;54.294;18.598;2024-02-04T07:09:12;9.37;;;2.10;;
57047;SDS011;42934;54.294;18.598;2024-02-04T07:11:42;14.63;;;2.30;;
57047;SDS011;42934;54.294;18.598;2024-02-04T07:14:13;12.88;;;1.83;;
57047;SDS011;42934;54.294;18.598;2024-02-04T07:16:42;13.15;;;1.90;;
57047;SDS011;42934;54.294;18.598;2024-02-04T07:19:11;12.60;;;1.98;;
57047;SDS011;42934;54.294;18.598;2024-02-04T07:21:40;14.80;;;1.47;;
57047;SDS011;42934;54.294;18.598;2024-02-04T07:24:11;14.07;;;2.03;;
57047;SDS011;42934;54.294;18.598;2024-02-04T07:26:40;11.40;;;1.67;;
57047;SDS011;42934;54.294;18.598;2024-02-04T07:29:09;8.43;;;1.58;;
57047;SDS011;42934;54.294;18.598;2024-02-04T07:31:41;13.40;;;1.83;;
57047;SDS011;42934;54.294;18.598;2024-02-04T07:34:11;10.63;;;1.85;;
57047;SDS011;42934;54.294;18.598;2024-02-04T07:36:40;10.35;;;1.80;;
57047;SDS011;42934;54.294;18.598;2024-02-04T07:39:10;18.60;;;2.72;;
57047;SDS011;42934;54.294;18.598;2024-02-04T07:41:40;12.68;;;2.13;;
57047;SDS011;42934;54.294;18.598;2024-02-04T07:44:09;13.90;;;2.60;;
57047;SDS011;42934;54.294;18.598;2024-02-04T07:46:38;10.75;;;1.98;;
57047;SDS011;42934;54.294;18.598;2024-02-04T07:49:09;11.50;;;1.88;;
57047;SDS011;42934;54.294;18.598;2024-02-04T07:51:38;12.43;;;1.73;;
57047;SDS011;42934;54.294;18.598;2024-02-04T07:54:07;9.75;;;1.70;;
57047;SDS011;42934;54.294;18.598;2024-02-04T07:56:36;8.35;;;1.92;;
57047;SDS011;42934;54.294;18.598;2024-02-04T07:59:06;10.57;;;1.70;;
57047;SDS011;42934;54.294;18.598;2024-02-04T08:01:35;8.15;;;1.83;;
57047;SDS011;42934;54.294;18.598;2024-02-04T08:04:06;14.23;;;1.90;;
57047;SDS011;42934;54.294;18.598;2024-02-04T08:06:37;11.82;;;1.70;;
57047;SDS011;42934;54.294;18.598;2024-02-04T08:09:07;11.48;;;1.42;;
57047;SDS011;42934;54.294;18.598;2024-02-04T08:11:36;11.23;;;1.92;;
57047;SDS011;42934;54.294;18.598;2024-02-04T08:14:05;13.50;;;2.03;;
57047;SDS011;42934;54.294;18.598;2024-02-04T08:16:34;9.15;;;1.95;;
57047;SDS011;42934;54.294;18.598;2024-02-04T08:19:05;13.17;;;3.23;;
57047;SDS011;42934;54.294;18.598;2024-02-04T08:21:34;11.00;;;1.85;;
57047;SDS011;42934;54.294;18.598;2024-02-04T08:24:04;8.03;;;2.00;;
57047;SDS011;42934;54.294;18.598;2024-02-04T08:26:33;11.77;;;2.90;;
57047;SDS011;42934;54.294;18.598;2024-02-04T08:29:03;12.90;;;2.03;;
57047;SDS011;42934;54.294;18.598;2024-02-04T08:31:32;10.27;;;2.50;;
57047;SDS011;42934;54.294;18.598;2024-02-04T08:34:01;11.47;;;1.87;;
57047;SDS011;42934;54.294;18.598;2024-02-04T08:36:32;13.07;;;2.10;;
57047;SDS011;42934;54.294;18.598;2024-02-04T08:39:02;13.05;;;1.95;;
57047;SDS011;42934;54.294;18.598;2024-02-04T08:41:31;11.98;;;2.45;;
57047;SDS011;42934;54.294;18.598;2024-02-04T08:44:00;9.83;;;1.97;;
57047;SDS011;42934;54.294;18.598;2024-02-04T08:46:30;9.20;;;1.73;;
57047;SDS011;42934;54.294;18.598;2024-02-04T08:48:59;12.90;;;2.55;;
57047;SDS011;42934;54.294;18.598;2024-02-04T08:51:28;12.23;;;2.15;;
57047;SDS011;42934;54.294;18.598;2024-02-04T08:53:59;15.73;;;2.78;;
57047;SDS011;42934;54.294;18.598;2024-02-04T08:56:29;13.18;;;2.50;;
57047;SDS011;42934;54.294;18.598;2024-02-04T08:58:58;12.30;;;2.20;;
57047;SDS011;42934;54.294;18.598;2024-02-04T09:01:28;9.82;;;2.22;;
57047;SDS011;42934;54.294;18.598;2024-02-04T09:03:58;13.48;;;2.67;;
57047;SDS011;42934;54.294;18.598;2024-02-04T09:06:27;10.40;;;2.33;;
57047;SDS011;42934;54.294;18.598;2024-02-04T09:08:56;13.60;;;2.37;;
57047;SDS011;42934;54.294;18.598;2024-02-04T09:11:27;10.85;;;2.28;;
57047;SDS011;42934;54.294;18.598;2024-02-04T09:13:56;11.48;;;2.20;;
57047;SDS011;42934;54.294;18.598;2024-02-04T09:16:25;10.60;;;1.90;;
57047;SDS011;42934;54.294;18.598;2024-02-04T09:18:55;8.75;;;1.63;;
57047;SDS011;42934;54.294;18.598;2024-02-04T09:21:24;12.97;;;1.93;;
57047;SDS011;42934;54.294;18.598;2024-02-04T09:23:54;13.52;;;2.17;;
57047;SDS011;42934;54.294;18.598;2024-02-04T09:26:24;11.18;;;2.08;;
57047;SDS011;42934;54.294;18.598;2024-02-04T09:28:54;11.77;;;2.13;;
57047;SDS011;42934;54.294;18.598;2024-02-04T09:31:24;10.25;;;1.77;;
57047;SDS011;42934;54.294;18.598;2024-02-04T09:33:53;11.10;;;2.30;;
57047;SDS011;42934;54.294;18.598;2024-02-04T09:36:22;14.43;;;2.42;;
57047;SDS011;42934;54.294;18.598;2024-02-04T09:38:52;13.77;;;2.17;;
57047;SDS011;42934;54.294;18.598;2024-02-04T09:41:22;18.83;;;3.25;;
57047;SDS011;42934;54.294;18.598;2024-02-04T09:43:55;11.45;;;2.33;;
57047;SDS011;42934;54.294;18.598;2024-02-04T09:46:27;13.98;;;2.70;;
57047;SDS011;42934;54.294;18.598;2024-02-04T09:48:57;12.50;;;2.67;;
57047;SDS011;42934;54.294;18.598;2024-02-04T09:51:29;8.68;;;1.83;;
57047;SDS011;42934;54.294;18.598;2024-02-04T09:54:03;12.55;;;2.00;;
57047;SDS011;42934;54.294;18.598;2024-02-04T09:56:34;12.35;;;2.25;;
57047;SDS011;42934;54.294;18.598;2024-02-04T09:59:07;10.73;;;2.13;;
57047;SDS011;42934;54.294;18.598;2024-02-04T10:01:36;10.85;;;2.17;;
57047;SDS011;42934;54.294;18.598;2024-02-04T10:04:06;13.77;;;2.65;;
57047;SDS011;42934;54.294;18.598;2024-02-04T10:06:35;11.35;;;2.50;;
57047;SDS011;42934;54.294;18.598;2024-02-04T10:09:05;11.18;;;2.00;;
57047;SDS011;42934;54.294;18.598;2024-02-04T10:11:34;11.25;;;2.03;;
57047;SDS011;42934;54.294;18.598;2024-02-04T10:14:04;8.10;;;2.00;;
57047;SDS011;42934;54.294;18.598;2024-02-04T10:16:35;9.80;;;2.10;;
57047;SDS011;42934;54.294;18.598;2024-02-04T10:19:05;8.45;;;1.80;;
57047;SDS011;42934;54.294;18.598;2024-02-04T10:21:34;10.48;;;2.10;;
57047;SDS011;42934;54.294;18.598;2024-02-04T10:24:05;15.45;;;2.80;;
57047;SDS011;42934;54.294;18.598;2024-02-04T10:26:35;10.48;;;2.22;;
57047;SDS011;42934;54.294;18.598;2024-02-04T10:29:04;10.07;;;2.47;;
57047;SDS011;42934;54.294;18.598;2024-02-04T10:31:35;13.82;;;3.00;;
57047;SDS011;42934;54.294;18.598;2024-02-04T10:34:05;12.77;;;2.70;;
57047;SDS011;42934;54.294;18.598;2024-02-04T10:36:35;12.68;;;3.13;;
57047;SDS011;42934;54.294;18.598;2024-02-04T10:39:04;14.70;;;2.80;;
57047;SDS011;42934;54.294;18.598;2024-02-04T10:41:33;8.25;;;2.50;;
57047;SDS011;42934;54.294;18.598;2024-02-04T10:44:11;12.27;;;2.70;;
57047;SDS011;42934;54.294;18.598;2024-02-04T10:46:43;9.57;;;1.73;;
57047;SDS011;42934;54.294;18.598;2024-02-04T10:49:15;10.02;;;2.53;;
57047;SDS011;42934;54.294;18.598;2024-02-04T10:51:46;17.63;;;2.30;;
57047;SDS011;42934;54.294;18.598;2024-02-04T10:54:17;11.18;;;2.60;;
57047;SDS011;42934;54.294;18.598;2024-02-04T10:56:52;8.85;;;2.40;;
57047;SDS011;42934;54.294;18.598;2024-02-04T10:59:29;14.57;;;2.63;;
57047;SDS011;42934;54.294;18.598;2024-02-04T11:02:00;7.03;;;2.78;;
57047;SDS011;42934;54.294;18.598;2024-02-04T11:04:33;11.93;;;2.97;;
57047;SDS011;42934;54.294;18.598;2024-02-04T11:09:33;11.77;;;2.10;;
57047;SDS011;42934;54.294;18.598;2024-02-04T11:12:03;6.10;;;2.05;;
57047;SDS011;42934;54.294;18.598;2024-02-04T11:14:39;10.90;;;2.30;;
57047;SDS011;42934;54.294;18.598;2024-02-04T11:20:10;11.13;;;2.00;;
57047;SDS011;42934;54.294;18.598;2024-02-04T11:22:55;5.43;;;1.88;;
57047;SDS011;42934;54.294;18.598;2024-02-04T11:25:43;11.57;;;2.15;;
57047;SDS011;42934;54.294;18.598;2024-02-04T11:28:15;12.10;;;2.05;;
57047;SDS011;42934;54.294;18.598;2024-02-04T11:30:48;10.68;;;2.80;;
57047;SDS011;42934;54.294;18.598;2024-02-04T11:33:18;12.20;;;4.40;;
57047;SDS011;42934;54.294;18.598;2024-02-04T11:35:58;7.00;;;2.40;;
57047;SDS011;42934;54.294;18.598;2024-02-04T11:38:31;8.70;;;2.55;;
57047;SDS011;42934;54.294;18.598;2024-02-04T11:41:03;10.57;;;2.60;;
57047;SDS011;42934;54.294;18.598;2024-02-04T11:43:33;11.73;;;2.40;;
57047;SDS011;42934;54.294;18.598;2024-02-04T11:46:06;12.02;;;2.55;;
57047;SDS011;42934;54.294;18.598;2024-02-04T11:48:50;10.45;;;3.22;;
57047;SDS011;42934;54.294;18.598;2024-02-04T11:51:22;7.60;;;2.13;;
57047;SDS011;42934;54.294;18.598;2024-02-04T11:56:21;9.23;;;2.35;;
57047;SDS011;42934;54.294;18.598;2024-02-04T11:58:52;9.85;;;2.70;;
57047;SDS011;42934;54.294;18.598;2024-02-04T12:01:23;11.23;;;2.10;;
57047;SDS011;42934;54.294;18.598;2024-02-04T12:03:53;10.15;;;2.42;;
57047;SDS011;42934;54.294;18.598;2024-02-04T12:06:23;10.20;;;2.75;;
57047;SDS011;42934;54.294;18.598;2024-02-04T12:08:53;11.73;;;3.13;;
57047;SDS011;42934;54.294;18.598;2024-02-04T12:11:23;13.93;;;2.90;;
57047;SDS011;42934;54.294;18.598;2024-02-04T12:13:52;12.30;;;2.95;;
57047;SDS011;42934;54.294;18.598;2024-02-04T12:16:25;11.18;;;2.35;;
57047;SDS011;42934;54.294;18.598;2024-02-04T12:18:54;9.13;;;3.00;;
57047;SDS011;42934;54.294;18.598;2024-02-04T12:21:24;11.13;;;3.42;;
57047;SDS011;42934;54.294;18.598;2024-02-04T12:23:54;13.00;;;3.35;;
57047;SDS011;42934;54.294;18.598;2024-02-04T12:26:24;8.80;;;3.00;;
57047;SDS011;42934;54.294;18.598;2024-02-04T12:28:53;12.07;;;2.20;;
57047;SDS011;42934;54.294;18.598;2024-02-04T12:31:25;16.05;;;2.65;;
57047;SDS011;42934;54.294;18.598;2024-02-04T12:33:56;11.00;;;2.78;;
57047;SDS011;42934;54.294;18.598;2024-02-04T12:36:28;11.27;;;3.13;;
57047;SDS011;42934;54.294;18.598;2024-02-04T12:38:59;14.23;;;2.80;;
57047;SDS011;42934;54.294;18.598;2024-02-04T12:41:30;13.43;;;2.63;;
57047;SDS011;42934;54.294;18.598;2024-02-04T12:44:00;13.80;;;2.95;;
57047;SDS011;42934;54.294;18.598;2024-02-04T12:46:34;12.70;;;4.15;;
57047;SDS011;42934;54.294;18.598;2024-02-04T12:49:03;14.75;;;3.03;;
57047;SDS011;42934;54.294;18.598;2024-02-04T12:51:33;8.23;;;3.03;;
57047;SDS011;42934;54.294;18.598;2024-02-04T12:54:05;10.85;;;3.83;;
57047;SDS011;42934;54.294;18.598;2024-02-04T12:56:42;16.52;;;3.58;;
57047;SDS011;42934;54.294;18.598;2024-02-04T12:59:23;14.60;;;2.42;;
57047;SDS011;42934;54.294;18.598;2024-02-04T13:01:55;10.57;;;2.67;;
57047;SDS011;42934;54.294;18.598;2024-02-04T13:04:25;14.25;;;3.00;;
57047;SDS011;42934;54.294;18.598;2024-02-04T13:07:01;11.77;;;2.40;;
57047;SDS011;42934;54.294;18.598;2024-02-04T13:09:34;10.88;;;2.63;;
57047;SDS011;42934;54.294;18.598;2024-02-04T13:12:03;9.93;;;2.50;;
57047;SDS011;42934;54.294;18.598;2024-02-04T13:14:34;16.35;;;2.72;;
57047;SDS011;42934;54.294;18.598;2024-02-04T13:17:05;10.55;;;3.42;;
57047;SDS011;42934;54.294;18.598;2024-02-04T13:19:34;8.20;;;2.00;;
57047;SDS011;42934;54.294;18.598;2024-02-04T13:22:05;13.98;;;2.92;;
57047;SDS011;42934;54.294;18.598;2024-02-04T13:24:36;9.45;;;2.45;;
57047;SDS011;42934;54.294;18.598;2024-02-04T13:27:06;7.88;;;2.38;;
57047;SDS011;42934;54.294;18.598;2024-02-04T13:29:36;11.25;;;2.47;;
57047;SDS011;42934;54.294;18.598;2024-02-04T13:32:06;12.52;;;2.15;;
57047;SDS011;42934;54.294;18.598;2024-02-04T13:34:36;8.13;;;2.20;;
57047;SDS011;42934;54.294;18.598;2024-02-04T13:37:05;10.07;;;2.25;;
57047;SDS011;42934;54.294;18.598;2024-02-04T13:39:35;9.65;;;3.03;;
57047;SDS011;42934;54.294;18.598;2024-02-04T13:42:04;14.43;;;3.53;;
57047;SDS011;42934;54.294;18.598;2024-02-04T13:44:34;11.40;;;3.55;;
57047;SDS011;42934;54.294;18.598;2024-02-04T13:47:03;14.45;;;3.60;;
57047;SDS011;42934;54.294;18.598;2024-02-04T13:49:35;14.00;;;3.08;;
57047;SDS011;42934;54.294;18.598;2024-02-04T13:52:04;10.48;;;2.80;;
57047;SDS011;42934;54.294;18.598;2024-02-04T13:54:33;12.00;;;3.72;;
57047;SDS011;42934;54.294;18.598;2024-02-04T13:57:03;8.60;;;2.37;;
57047;SDS011;42934;54.294;18.598;2024-02-04T13:59:32;9.47;;;3.13;;
57047;SDS011;42934;54.294;18.598;2024-02-04T14:02:02;13.18;;;3.55;;
57047;SDS011;42934;54.294;18.598;2024-02-04T14:04:32;11.73;;;3.42;;
57047;SDS011;42934;54.294;18.598;2024-02-04T14:07:03;9.57;;;3.35;;
57047;SDS011;42934;54.294;18.598;2024-02-04T14:09:32;11.98;;;2.53;;
57047;SDS011;42934;54.294;18.598;2024-02-04T14:12:01;10.20;;;3.30;;
57047;SDS011;42934;54.294;18.598;2024-02-04T14:14:31;11.07;;;3.85;;
57047;SDS011;42934;54.294;18.598;2024-02-04T14:17:01;9.15;;;3.17;;
57047;SDS011;42934;54.294;18.598;2024-02-04T14:19:30;8.63;;;3.22;;
57047;SDS011;42934;54.294;18.598;2024-02-04T14:22:00;14.13;;;3.05;;
57047;SDS011;42934;54.294;18.598;2024-02-04T14:24:30;11.05;;;3.10;;
57047;SDS011;42934;54.294;18.598;2024-02-04T14:27:00;8.32;;;2.55;;
57047;SDS011;42934;54.294;18.598;2024-02-04T14:29:29;13.70;;;4.40;;
57047;SDS011;42934;54.294;18.598;2024-02-04T14:31:59;10.97;;;3.60;;
57047;SDS011;42934;54.294;18.598;2024-02-04T14:34:28;10.98;;;3.08;;
57047;SDS011;42934;54.294;18.598;2024-02-04T14:36:57;19.83;;;5.93;;
57047;SDS011;42934;54.294;18.598;2024-02-04T14:39:27;15.70;;;4.22;;
57047;SDS011;42934;54.294;18.598;2024-02-04T14:42:00;11.80;;;4.10;;
57047;SDS011;42934;54.294;18.598;2024-02-04T14:44:29;18.02;;;5.85;;
57047;SDS011;42934;54.294;18.598;2024-02-04T14:46:58;13.32;;;4.47;;
57047;SDS011;42934;54.294;18.598;2024-02-04T14:49:28;12.20;;;3.13;;
57047;SDS011;42934;54.294;18.598;2024-02-04T14:51:58;12.48;;;2.78;;